sensor_id;sensor_type;location;lat;lon;timestamp;temperature;humidity
2202;DHT22;1107;48.654;9.250;2023-06-14T00:01:14;16.40;1.00
2202;DHT22;1107;48.654;9.250;2023-06-14T00:03:41;16.40;1.00
2202;DHT22;1107;48.654;9.250;2023-06-14T00:06:08;16.30;1.00
2202;DHT22;1107;48.654;9.250;2023-06-14T00:08:34;16.30;1.00
2202;DHT22;1107;48.654;9.250;2023-06-14T00:11:01;16.30;1.00
2202;DHT22;1107;48.654;9.250;2023-06-14T00:13:28;16.30;1.00
2202;DHT22;1107;48.654;9.250;2023-06-14T00:15:57;16.30;1.00
2202;DHT22;1107;48.654;9.250;2023-06-14T00:18:24;16.20;1.00
2202;DHT22;1107;48.654;9.250;2023-06-14T00:20:52;16.10;1.00
2202;DHT22;1107;48.654;9.250;2023-06-14T00:23:19;16.00;1.00
2202;DHT22;1107;48.654;9.250;2023-06-14T00:25:46;16.00;1.00
2202;DHT22;1107;48.654;9.250;2023-06-14T00:28:13;16.00;1.00
2202;DHT22;1107;48.654;9.250;2023-06-14T00:30:40;16.00;1.00
2202;DHT22;1107;48.654;9.250;2023-06-14T00:33:11;15.90;1.00
2202;DHT22;1107;48.654;9.250;2023-06-14T00:35:38;15.80;1.00
2202;DHT22;1107;48.654;9.250;2023-06-14T00:38:05;15.80;1.00
2202;DHT22;1107;48.654;9.250;2023-06-14T00:40:32;15.80;1.00
2202;DHT22;1107;48.654;9.250;2023-06-14T00:43:00;15.90;1.00
2202;DHT22;1107;48.654;9.250;2023-06-14T00:45:27;15.90;1.00
2202;DHT22;1107;48.654;9.250;2023-06-14T00:47:54;16.00;1.00
2202;DHT22;1107;48.654;9.250;2023-06-14T00:50:23;16.00;1.00
2202;DHT22;1107;48.654;9.250;2023-06-14T00:52:50;16.00;1.00
2202;DHT22;1107;48.654;9.250;2023-06-14T00:55:17;16.10;1.00
2202;DHT22;1107;48.654;9.250;2023-06-14T00:57:44;16.00;1.00
2202;DHT22;1107;48.654;9.250;2023-06-14T01:00:12;16.00;1.00
2202;DHT22;1107;48.654;9.250;2023-06-14T01:02:40;16.00;1.00
2202;DHT22;1107;48.654;9.250;2023-06-14T01:05:08;15.90;1.00
2202;DHT22;1107;48.654;9.250;2023-06-14T01:07:48;15.90;1.00
2202;DHT22;1107;48.654;9.250;2023-06-14T01:10:30;15.90;1.00
2202;DHT22;1107;48.654;9.250;2023-06-14T01:13:07;15.90;1.00
2202;DHT22;1107;48.654;9.250;2023-06-14T01:15:38;15.90;1.00
2202;DHT22;1107;48.654;9.250;2023-06-14T01:18:06;15.80;1.00
2202;DHT22;1107;48.654;9.250;2023-06-14T01:20:33;15.80;1.00
2202;DHT22;1107;48.654;9.250;2023-06-14T01:23:03;15.70;1.00
2202;DHT22;1107;48.654;9.250;2023-06-14T01:25:30;15.70;1.00
2202;DHT22;1107;48.654;9.250;2023-06-14T01:28:06;15.70;1.00
2202;DHT22;1107;48.654;9.250;2023-06-14T01:30:37;15.70;1.00
2202;DHT22;1107;48.654;9.250;2023-06-14T01:33:04;15.50;1.00
2202;DHT22;1107;48.654;9.250;2023-06-14T01:35:32;15.50;1.00
2202;DHT22;1107;48.654;9.250;2023-06-14T01:38:00;15.40;1.00
2202;DHT22;1107;48.654;9.250;2023-06-14T01:40:29;15.20;1.00
2202;DHT22;1107;48.654;9.250;2023-06-14T01:42:57;15.20;1.00
2202;DHT22;1107;48.654;9.250;2023-06-14T01:45:25;15.10;1.00
2202;DHT22;1107;48.654;9.250;2023-06-14T01:47:52;15.00;1.00
2202;DHT22;1107;48.654;9.250;2023-06-14T01:50:20;15.00;1.00
2202;DHT22;1107;48.654;9.250;2023-06-14T01:52:47;14.90;1.00
2202;DHT22;1107;48.654;9.250;2023-06-14T01:55:14;14.90;1.00
2202;DHT22;1107;48.654;9.250;2023-06-14T01:57:44;14.90;1.00
2202;DHT22;1107;48.654;9.250;2023-06-14T02:00:12;14.90;1.00
2202;DHT22;1107;48.654;9.250;2023-06-14T02:02:40;14.90;1.00
2202;DHT22;1107;48.654;9.250;2023-06-14T02:05:07;14.80;1.00
2202;DHT22;1107;48.654;9.250;2023-06-14T02:07:34;14.60;1.00
2202;DHT22;1107;48.654;9.250;2023-06-14T02:10:01;14.60;1.00
2202;DHT22;1107;48.654;9.250;2023-06-14T02:12:28;14.50;1.00
2202;DHT22;1107;48.654;9.250;2023-06-14T02:14:57;14.40;1.00
2202;DHT22;1107;48.654;9.250;2023-06-14T02:17:24;14.50;1.00
2202;DHT22;1107;48.654;9.250;2023-06-14T02:19:51;14.40;1.00
2202;DHT22;1107;48.654;9.250;2023-06-14T02:22:18;14.40;1.00
2202;DHT22;1107;48.654;9.250;2023-06-14T02:24:47;14.30;1.00
2202;DHT22;1107;48.654;9.250;2023-06-14T02:27:14;14.30;1.00
2202;DHT22;1107;48.654;9.250;2023-06-14T02:29:41;14.20;1.00
2202;DHT22;1107;48.654;9.250;2023-06-14T02:32:09;14.10;1.00
2202;DHT22;1107;48.654;9.250;2023-06-14T02:34:36;14.10;1.00
2202;DHT22;1107;48.654;9.250;2023-06-14T02:37:06;14.00;1.00
2202;DHT22;1107;48.654;9.250;2023-06-14T02:39:33;14.00;1.00
2202;DHT22;1107;48.654;9.250;2023-06-14T02:42:00;14.00;1.00
2202;DHT22;1107;48.654;9.250;2023-06-14T02:44:27;14.00;1.00
2202;DHT22;1107;48.654;9.250;2023-06-14T02:46:55;13.90;1.00
2202;DHT22;1107;48.654;9.250;2023-06-14T02:49:23;14.00;1.00
2202;DHT22;1107;48.654;9.250;2023-06-14T02:51:50;14.00;1.00
2202;DHT22;1107;48.654;9.250;2023-06-14T02:54:17;13.90;1.00
2202;DHT22;1107;48.654;9.250;2023-06-14T02:56:44;13.80;1.00
2202;DHT22;1107;48.654;9.250;2023-06-14T02:59:11;13.80;1.00
2202;DHT22;1107;48.654;9.250;2023-06-14T03:01:39;13.80;1.00
2202;DHT22;1107;48.654;9.250;2023-06-14T03:04:07;13.80;1.00
2202;DHT22;1107;48.654;9.250;2023-06-14T03:06:35;13.80;1.00
2202;DHT22;1107;48.654;9.250;2023-06-14T03:09:03;13.80;1.00
2202;DHT22;1107;48.654;9.250;2023-06-14T03:11:31;13.80;1.00
2202;DHT22;1107;48.654;9.250;2023-06-14T03:13:59;13.80;1.00
2202;DHT22;1107;48.654;9.250;2023-06-14T03:16:29;13.80;1.00
2202;DHT22;1107;48.654;9.250;2023-06-14T03:18:57;13.80;1.60
2202;DHT22;1107;48.654;9.250;2023-06-14T03:21:24;13.80;2.70
2202;DHT22;1107;48.654;9.250;2023-06-14T03:23:52;13.80;3.30
2202;DHT22;1107;48.654;9.250;2023-06-14T03:26:20;13.80;6.40
2202;DHT22;1107;48.654;9.250;2023-06-14T03:28:48;13.80;4.80
2202;DHT22;1107;48.654;9.250;2023-06-14T03:31:15;13.90;6.10
2202;DHT22;1107;48.654;9.250;2023-06-14T03:33:42;13.90;6.40
2202;DHT22;1107;48.654;9.250;2023-06-14T03:36:09;13.90;8.30
2202;DHT22;1107;48.654;9.250;2023-06-14T03:38:36;13.90;9.20
2202;DHT22;1107;48.654;9.250;2023-06-14T03:41:04;14.00;9.30
2202;DHT22;1107;48.654;9.250;2023-06-14T03:43:31;14.00;11.80
2202;DHT22;1107;48.654;9.250;2023-06-14T03:45:59;14.00;13.70
2202;DHT22;1107;48.654;9.250;2023-06-14T03:48:26;14.00;17.80
2202;DHT22;1107;48.654;9.250;2023-06-14T03:50:52;14.00;20.50
2202;DHT22;1107;48.654;9.250;2023-06-14T03:53:20;14.00;22.80
2202;DHT22;1107;48.654;9.250;2023-06-14T03:55:48;14.00;26.80
2202;DHT22;1107;48.654;9.250;2023-06-14T03:58:19;14.10;29.80
2202;DHT22;1107;48.654;9.250;2023-06-14T04:00:47;14.20;30.70
2202;DHT22;1107;48.654;9.250;2023-06-14T04:03:14;14.30;33.10
2202;DHT22;1107;48.654;9.250;2023-06-14T04:05:42;14.40;26.50
2202;DHT22;1107;48.654;9.250;2023-06-14T04:08:10;14.40;21.70
2202;DHT22;1107;48.654;9.250;2023-06-14T04:10:40;14.50;20.70
2202;DHT22;1107;48.654;9.250;2023-06-14T04:13:07;14.60;26.70
2202;DHT22;1107;48.654;9.250;2023-06-14T04:15:39;14.80;24.30
2202;DHT22;1107;48.654;9.250;2023-06-14T04:18:07;14.90;22.40
2202;DHT22;1107;48.654;9.250;2023-06-14T04:20:34;15.00;18.70
2202;DHT22;1107;48.654;9.250;2023-06-14T04:23:11;15.10;19.90
2202;DHT22;1107;48.654;9.250;2023-06-14T04:25:38;15.20;21.40
2202;DHT22;1107;48.654;9.250;2023-06-14T04:28:06;15.30;17.70
2202;DHT22;1107;48.654;9.250;2023-06-14T04:30:34;15.30;19.20
2202;DHT22;1107;48.654;9.250;2023-06-14T04:33:05;15.40;18.20
2202;DHT22;1107;48.654;9.250;2023-06-14T04:35:32;15.50;36.80
2202;DHT22;1107;48.654;9.250;2023-06-14T04:38:02;15.60;22.40
2202;DHT22;1107;48.654;9.250;2023-06-14T04:40:31;15.70;21.30
2202;DHT22;1107;48.654;9.250;2023-06-14T04:42:59;15.90;20.10
2202;DHT22;1107;48.654;9.250;2023-06-14T04:45:26;16.10;17.30
2202;DHT22;1107;48.654;9.250;2023-06-14T04:47:58;16.30;15.30
2202;DHT22;1107;48.654;9.250;2023-06-14T04:50:27;16.50;14.00
2202;DHT22;1107;48.654;9.250;2023-06-14T04:52:55;16.60;13.30
2202;DHT22;1107;48.654;9.250;2023-06-14T04:55:22;16.80;16.50
2202;DHT22;1107;48.654;9.250;2023-06-14T04:57:50;16.90;16.10
2202;DHT22;1107;48.654;9.250;2023-06-14T05:00:19;17.00;17.50
2202;DHT22;1107;48.654;9.250;2023-06-14T05:02:46;17.10;16.80
2202;DHT22;1107;48.654;9.250;2023-06-14T05:05:14;17.10;13.80
2202;DHT22;1107;48.654;9.250;2023-06-14T05:07:44;17.10;11.00
2202;DHT22;1107;48.654;9.250;2023-06-14T05:10:12;17.20;12.80
2202;DHT22;1107;48.654;9.250;2023-06-14T05:12:39;17.30;13.00
2202;DHT22;1107;48.654;9.250;2023-06-14T05:15:07;17.50;14.10
2202;DHT22;1107;48.654;9.250;2023-06-14T05:17:34;17.50;8.40
2202;DHT22;1107;48.654;9.250;2023-06-14T05:20:03;17.60;8.90
2202;DHT22;1107;48.654;9.250;2023-06-14T05:22:30;17.60;9.60
2202;DHT22;1107;48.654;9.250;2023-06-14T05:24:59;17.70;6.80
2202;DHT22;1107;48.654;9.250;2023-06-14T05:27:26;17.80;6.70
2202;DHT22;1107;48.654;9.250;2023-06-14T05:29:53;17.90;9.40
2202;DHT22;1107;48.654;9.250;2023-06-14T05:32:21;18.00;9.40
2202;DHT22;1107;48.654;9.250;2023-06-14T05:34:48;18.00;11.90
2202;DHT22;1107;48.654;9.250;2023-06-14T05:37:15;18.10;12.70
2202;DHT22;1107;48.654;9.250;2023-06-14T05:39:42;18.30;14.00
2202;DHT22;1107;48.654;9.250;2023-06-14T05:42:11;18.50;15.20
2202;DHT22;1107;48.654;9.250;2023-06-14T05:44:38;18.50;18.10
2202;DHT22;1107;48.654;9.250;2023-06-14T05:47:05;18.60;18.20
2202;DHT22;1107;48.654;9.250;2023-06-14T05:49:32;18.70;16.80
2202;DHT22;1107;48.654;9.250;2023-06-14T05:51:59;18.90;15.30
2202;DHT22;1107;48.654;9.250;2023-06-14T05:54:26;19.00;13.30
2202;DHT22;1107;48.654;9.250;2023-06-14T05:56:53;19.10;14.60
2202;DHT22;1107;48.654;9.250;2023-06-14T05:59:21;19.10;31.00
2202;DHT22;1107;48.654;9.250;2023-06-14T06:01:48;19.30;15.90
2202;DHT22;1107;48.654;9.250;2023-06-14T06:04:15;19.50;16.00
2202;DHT22;1107;48.654;9.250;2023-06-14T06:06:42;19.70;11.50
2202;DHT22;1107;48.654;9.250;2023-06-14T06:09:09;19.90;11.40
2202;DHT22;1107;48.654;9.250;2023-06-14T06:11:36;20.00;7.20
2202;DHT22;1107;48.654;9.250;2023-06-14T06:14:03;20.10;5.50
2202;DHT22;1107;48.654;9.250;2023-06-14T06:16:31;20.20;6.50
2202;DHT22;1107;48.654;9.250;2023-06-14T06:18:58;20.50;7.50
2202;DHT22;1107;48.654;9.250;2023-06-14T06:21:26;20.70;6.60
2202;DHT22;1107;48.654;9.250;2023-06-14T06:23:52;20.90;6.50
2202;DHT22;1107;48.654;9.250;2023-06-14T06:26:21;21.10;6.00
2202;DHT22;1107;48.654;9.250;2023-06-14T06:28:48;21.20;4.90
2202;DHT22;1107;48.654;9.250;2023-06-14T06:31:15;21.40;5.80
2202;DHT22;1107;48.654;9.250;2023-06-14T06:33:43;21.50;6.10
2202;DHT22;1107;48.654;9.250;2023-06-14T06:36:10;21.60;7.60
2202;DHT22;1107;48.654;9.250;2023-06-14T06:38:37;21.60;3.20
2202;DHT22;1107;48.654;9.250;2023-06-14T06:41:04;21.70;1.50
2202;DHT22;1107;48.654;9.250;2023-06-14T06:43:31;21.80;1.00
2202;DHT22;1107;48.654;9.250;2023-06-14T06:45:58;22.10;1.00
2202;DHT22;1107;48.654;9.250;2023-06-14T06:48:25;22.20;1.00
2202;DHT22;1107;48.654;9.250;2023-06-14T06:50:53;22.50;1.00
2202;DHT22;1107;48.654;9.250;2023-06-14T06:53:20;22.60;1.00
2202;DHT22;1107;48.654;9.250;2023-06-14T06:55:47;22.80;1.00
2202;DHT22;1107;48.654;9.250;2023-06-14T06:58:14;23.00;1.00
2202;DHT22;1107;48.654;9.250;2023-06-14T07:00:41;23.30;1.00
2202;DHT22;1107;48.654;9.250;2023-06-14T07:03:08;23.40;1.00
2202;DHT22;1107;48.654;9.250;2023-06-14T07:05:34;23.50;1.00
2202;DHT22;1107;48.654;9.250;2023-06-14T07:08:03;23.60;1.00
2202;DHT22;1107;48.654;9.250;2023-06-14T07:10:30;23.60;1.00
2202;DHT22;1107;48.654;9.250;2023-06-14T07:12:57;23.80;1.00
2202;DHT22;1107;48.654;9.250;2023-06-14T07:15:24;24.00;1.00
2202;DHT22;1107;48.654;9.250;2023-06-14T07:17:51;24.00;1.00
2202;DHT22;1107;48.654;9.250;2023-06-14T07:20:18;24.00;1.00
2202;DHT22;1107;48.654;9.250;2023-06-14T07:22:47;24.20;1.00
2202;DHT22;1107;48.654;9.250;2023-06-14T07:25:15;24.40;1.00
2202;DHT22;1107;48.654;9.250;2023-06-14T07:27:46;24.60;1.00
2202;DHT22;1107;48.654;9.250;2023-06-14T07:30:13;24.60;1.00
2202;DHT22;1107;48.654;9.250;2023-06-14T07:32:40;24.80;1.00
2202;DHT22;1107;48.654;9.250;2023-06-14T07:35:07;25.00;1.00
2202;DHT22;1107;48.654;9.250;2023-06-14T07:37:35;25.20;1.00
2202;DHT22;1107;48.654;9.250;2023-06-14T07:40:02;25.40;1.00
2202;DHT22;1107;48.654;9.250;2023-06-14T07:42:33;25.50;1.00
2202;DHT22;1107;48.654;9.250;2023-06-14T07:45:01;25.90;1.00
2202;DHT22;1107;48.654;9.250;2023-06-14T07:47:28;26.20;1.00
2202;DHT22;1107;48.654;9.250;2023-06-14T07:49:55;26.60;1.00
2202;DHT22;1107;48.654;9.250;2023-06-14T07:52:22;26.50;1.00
2202;DHT22;1107;48.654;9.250;2023-06-14T07:54:49;26.70;1.00
2202;DHT22;1107;48.654;9.250;2023-06-14T07:57:16;26.70;1.00
2202;DHT22;1107;48.654;9.250;2023-06-14T07:59:47;27.00;1.00
2202;DHT22;1107;48.654;9.250;2023-06-14T08:02:14;27.30;1.00
2202;DHT22;1107;48.654;9.250;2023-06-14T08:04:41;27.30;1.00
2202;DHT22;1107;48.654;9.250;2023-06-14T08:07:08;27.60;1.00
2202;DHT22;1107;48.654;9.250;2023-06-14T08:09:35;27.70;1.00
2202;DHT22;1107;48.654;9.250;2023-06-14T08:12:04;27.90;1.00
2202;DHT22;1107;48.654;9.250;2023-06-14T08:14:33;28.00;1.00
2202;DHT22;1107;48.654;9.250;2023-06-14T08:17:01;28.40;1.00
2202;DHT22;1107;48.654;9.250;2023-06-14T08:19:28;28.60;1.00
2202;DHT22;1107;48.654;9.250;2023-06-14T08:21:55;28.90;1.00
2202;DHT22;1107;48.654;9.250;2023-06-14T08:24:22;28.80;1.00
2202;DHT22;1107;48.654;9.250;2023-06-14T08:26:50;28.80;1.00
2202;DHT22;1107;48.654;9.250;2023-06-14T08:29:17;29.10;1.00
2202;DHT22;1107;48.654;9.250;2023-06-14T08:31:45;29.00;1.00
2202;DHT22;1107;48.654;9.250;2023-06-14T08:34:13;29.00;1.00
2202;DHT22;1107;48.654;9.250;2023-06-14T08:36:40;28.80;1.00
2202;DHT22;1107;48.654;9.250;2023-06-14T08:39:07;29.00;1.00
2202;DHT22;1107;48.654;9.250;2023-06-14T08:41:35;28.60;1.00
2202;DHT22;1107;48.654;9.250;2023-06-14T08:44:03;29.10;1.00
2202;DHT22;1107;48.654;9.250;2023-06-14T08:46:32;29.10;1.00
2202;DHT22;1107;48.654;9.250;2023-06-14T08:49:01;29.10;1.00
2202;DHT22;1107;48.654;9.250;2023-06-14T08:51:31;29.10;1.00
2202;DHT22;1107;48.654;9.250;2023-06-14T08:54:00;29.20;1.00
2202;DHT22;1107;48.654;9.250;2023-06-14T08:56:30;29.40;1.00
2202;DHT22;1107;48.654;9.250;2023-06-14T08:59:00;29.40;1.00
2202;DHT22;1107;48.654;9.250;2023-06-14T09:01:28;29.70;1.00
2202;DHT22;1107;48.654;9.250;2023-06-14T09:03:56;29.90;1.00
2202;DHT22;1107;48.654;9.250;2023-06-14T09:06:24;29.70;1.00
2202;DHT22;1107;48.654;9.250;2023-06-14T09:08:55;30.10;1.00
2202;DHT22;1107;48.654;9.250;2023-06-14T09:11:23;30.40;1.00
2202;DHT22;1107;48.654;9.250;2023-06-14T09:13:52;30.40;1.00
2202;DHT22;1107;48.654;9.250;2023-06-14T09:16:19;30.60;1.00
2202;DHT22;1107;48.654;9.250;2023-06-14T09:18:47;30.70;1.00
2202;DHT22;1107;48.654;9.250;2023-06-14T09:21:15;31.20;1.00
2202;DHT22;1107;48.654;9.250;2023-06-14T09:23:43;31.30;1.00
2202;DHT22;1107;48.654;9.250;2023-06-14T09:26:13;31.50;1.00
2202;DHT22;1107;48.654;9.250;2023-06-14T09:28:44;31.60;1.00
2202;DHT22;1107;48.654;9.250;2023-06-14T09:31:11;31.50;1.00
2202;DHT22;1107;48.654;9.250;2023-06-14T09:33:38;31.30;1.00
2202;DHT22;1107;48.654;9.250;2023-06-14T09:36:12;31.20;1.00
2202;DHT22;1107;48.654;9.250;2023-06-14T09:38:40;31.50;1.00
2202;DHT22;1107;48.654;9.250;2023-06-14T09:41:07;31.30;1.00
2202;DHT22;1107;48.654;9.250;2023-06-14T09:43:36;31.50;1.00
2202;DHT22;1107;48.654;9.250;2023-06-14T09:46:05;32.00;1.00
2202;DHT22;1107;48.654;9.250;2023-06-14T09:48:33;32.30;1.00
2202;DHT22;1107;48.654;9.250;2023-06-14T09:51:00;31.90;1.00
2202;DHT22;1107;48.654;9.250;2023-06-14T09:53:30;31.70;1.00
2202;DHT22;1107;48.654;9.250;2023-06-14T09:55:59;31.70;1.00
2202;DHT22;1107;48.654;9.250;2023-06-14T09:58:26;31.90;1.00
2202;DHT22;1107;48.654;9.250;2023-06-14T10:00:57;32.00;1.00
2202;DHT22;1107;48.654;9.250;2023-06-14T10:03:28;31.50;1.00
2202;DHT22;1107;48.654;9.250;2023-06-14T10:05:55;31.20;1.00
2202;DHT22;1107;48.654;9.250;2023-06-14T10:08:27;30.90;1.00
2202;DHT22;1107;48.654;9.250;2023-06-14T10:10:58;30.70;1.00
2202;DHT22;1107;48.654;9.250;2023-06-14T10:13:27;30.70;1.00
2202;DHT22;1107;48.654;9.250;2023-06-14T10:16:02;30.20;1.00
2202;DHT22;1107;48.654;9.250;2023-06-14T10:18:38;29.50;1.00
2202;DHT22;1107;48.654;9.250;2023-06-14T10:21:15;28.30;1.00
2202;DHT22;1107;48.654;9.250;2023-06-14T10:23:43;28.60;1.00
2202;DHT22;1107;48.654;9.250;2023-06-14T10:26:18;29.00;1.00
2202;DHT22;1107;48.654;9.250;2023-06-14T10:28:56;29.00;1.00
2202;DHT22;1107;48.654;9.250;2023-06-14T10:31:40;29.20;1.00
2202;DHT22;1107;48.654;9.250;2023-06-14T10:34:07;29.20;1.00
2202;DHT22;1107;48.654;9.250;2023-06-14T10:36:34;28.90;1.00
2202;DHT22;1107;48.654;9.250;2023-06-14T10:39:05;29.10;1.00
2202;DHT22;1107;48.654;9.250;2023-06-14T10:41:35;29.40;1.00
2202;DHT22;1107;48.654;9.250;2023-06-14T10:44:40;29.10;1.00
2202;DHT22;1107;48.654;9.250;2023-06-14T10:49:53;29.30;1.00
2202;DHT22;1107;48.654;9.250;2023-06-14T10:52:25;29.10;1.00
2202;DHT22;1107;48.654;9.250;2023-06-14T10:55:11;29.20;1.00
2202;DHT22;1107;48.654;9.250;2023-06-14T10:57:42;29.70;1.00
2202;DHT22;1107;48.654;9.250;2023-06-14T11:00:10;29.70;1.00
2202;DHT22;1107;48.654;9.250;2023-06-14T11:03:33;30.00;1.00
2202;DHT22;1107;48.654;9.250;2023-06-14T11:06:14;30.30;1.00
2202;DHT22;1107;48.654;9.250;2023-06-14T11:09:20;29.90;1.00
2202;DHT22;1107;48.654;9.250;2023-06-14T11:11:54;30.20;1.00
2202;DHT22;1107;48.654;9.250;2023-06-14T11:14:23;30.30;1.00
2202;DHT22;1107;48.654;9.250;2023-06-14T11:16:50;30.40;1.00
2202;DHT22;1107;48.654;9.250;2023-06-14T11:19:18;30.10;1.00
2202;DHT22;1107;48.654;9.250;2023-06-14T11:21:47;29.70;1.00
2202;DHT22;1107;48.654;9.250;2023-06-14T11:24:14;29.80;1.00
2202;DHT22;1107;48.654;9.250;2023-06-14T11:26:41;29.90;1.00
2202;DHT22;1107;48.654;9.250;2023-06-14T11:29:08;30.20;1.00
2202;DHT22;1107;48.654;9.250;2023-06-14T11:31:36;30.30;1.00
2202;DHT22;1107;48.654;9.250;2023-06-14T11:34:02;30.70;1.00
2202;DHT22;1107;48.654;9.250;2023-06-14T11:36:34;31.00;1.00
2202;DHT22;1107;48.654;9.250;2023-06-14T11:39:01;31.10;1.00
2202;DHT22;1107;48.654;9.250;2023-06-14T11:41:37;30.70;1.00
2202;DHT22;1107;48.654;9.250;2023-06-14T11:44:04;30.60;1.00
2202;DHT22;1107;48.654;9.250;2023-06-14T11:46:31;30.50;1.00
2202;DHT22;1107;48.654;9.250;2023-06-14T11:48:58;30.60;1.00
2202;DHT22;1107;48.654;9.250;2023-06-14T11:51:28;30.80;1.00
2202;DHT22;1107;48.654;9.250;2023-06-14T11:53:57;30.90;1.00
2202;DHT22;1107;48.654;9.250;2023-06-14T11:56:25;30.00;1.00
2202;DHT22;1107;48.654;9.250;2023-06-14T11:58:53;29.30;1.00
2202;DHT22;1107;48.654;9.250;2023-06-14T12:01:22;29.60;1.00
2202;DHT22;1107;48.654;9.250;2023-06-14T12:03:49;28.80;1.00
2202;DHT22;1107;48.654;9.250;2023-06-14T12:06:26;29.20;1.00
2202;DHT22;1107;48.654;9.250;2023-06-14T12:08:57;30.10;1.00
2202;DHT22;1107;48.654;9.250;2023-06-14T12:11:24;30.30;1.00
2202;DHT22;1107;48.654;9.250;2023-06-14T12:13:56;30.10;1.00
2202;DHT22;1107;48.654;9.250;2023-06-14T12:16:30;29.50;1.00
2202;DHT22;1107;48.654;9.250;2023-06-14T12:19:00;29.00;1.00
2202;DHT22;1107;48.654;9.250;2023-06-14T12:21:28;28.30;1.00
2202;DHT22;1107;48.654;9.250;2023-06-14T12:23:57;28.00;1.00
2202;DHT22;1107;48.654;9.250;2023-06-14T12:26:25;28.40;1.00
2202;DHT22;1107;48.654;9.250;2023-06-14T12:28:53;29.10;1.00
2202;DHT22;1107;48.654;9.250;2023-06-14T12:31:20;28.60;1.00
2202;DHT22;1107;48.654;9.250;2023-06-14T12:33:47;27.80;1.00
2202;DHT22;1107;48.654;9.250;2023-06-14T12:36:15;26.80;1.00
2202;DHT22;1107;48.654;9.250;2023-06-14T12:38:43;26.30;1.00
2202;DHT22;1107;48.654;9.250;2023-06-14T12:41:12;26.30;1.00
2202;DHT22;1107;48.654;9.250;2023-06-14T12:43:40;26.80;1.00
2202;DHT22;1107;48.654;9.250;2023-06-14T12:46:07;27.70;1.00
2202;DHT22;1107;48.654;9.250;2023-06-14T12:48:34;28.50;1.00
2202;DHT22;1107;48.654;9.250;2023-06-14T12:51:01;29.20;1.00
2202;DHT22;1107;48.654;9.250;2023-06-14T12:53:28;29.70;1.00
2202;DHT22;1107;48.654;9.250;2023-06-14T12:55:55;29.80;1.00
2202;DHT22;1107;48.654;9.250;2023-06-14T12:58:23;30.10;1.00
2202;DHT22;1107;48.654;9.250;2023-06-14T13:00:50;29.90;1.00
2202;DHT22;1107;48.654;9.250;2023-06-14T13:03:17;29.00;1.00
2202;DHT22;1107;48.654;9.250;2023-06-14T13:05:44;29.20;1.00
2202;DHT22;1107;48.654;9.250;2023-06-14T13:08:11;29.70;1.00
2202;DHT22;1107;48.654;9.250;2023-06-14T13:10:38;30.10;1.00
2202;DHT22;1107;48.654;9.250;2023-06-14T13:13:05;30.10;1.00
2202;DHT22;1107;48.654;9.250;2023-06-14T13:15:35;29.80;1.00
2202;DHT22;1107;48.654;9.250;2023-06-14T13:18:02;29.10;1.00
2202;DHT22;1107;48.654;9.250;2023-06-14T13:20:29;28.20;1.00
2202;DHT22;1107;48.654;9.250;2023-06-14T13:22:56;27.50;1.00
2202;DHT22;1107;48.654;9.250;2023-06-14T13:25:23;27.30;1.00
2202;DHT22;1107;48.654;9.250;2023-06-14T13:27:50;26.80;1.00
2202;DHT22;1107;48.654;9.250;2023-06-14T13:30:17;26.60;1.00
2202;DHT22;1107;48.654;9.250;2023-06-14T13:32:45;26.50;1.00
2202;DHT22;1107;48.654;9.250;2023-06-14T13:35:12;27.20;1.00
2202;DHT22;1107;48.654;9.250;2023-06-14T13:37:39;27.80;1.00
2202;DHT22;1107;48.654;9.250;2023-06-14T13:40:07;28.10;1.00
2202;DHT22;1107;48.654;9.250;2023-06-14T13:42:34;28.60;1.00
2202;DHT22;1107;48.654;9.250;2023-06-14T13:45:01;28.90;1.00
2202;DHT22;1107;48.654;9.250;2023-06-14T13:47:29;28.90;1.00
2202;DHT22;1107;48.654;9.250;2023-06-14T13:49:58;29.10;1.00
2202;DHT22;1107;48.654;9.250;2023-06-14T13:52:25;29.20;1.00
2202;DHT22;1107;48.654;9.250;2023-06-14T13:54:52;29.30;1.00
2202;DHT22;1107;48.654;9.250;2023-06-14T13:57:20;29.00;1.00
2202;DHT22;1107;48.654;9.250;2023-06-14T13:59:46;28.50;1.00
2202;DHT22;1107;48.654;9.250;2023-06-14T14:02:14;27.70;1.00
2202;DHT22;1107;48.654;9.250;2023-06-14T14:04:41;27.20;1.00
2202;DHT22;1107;48.654;9.250;2023-06-14T14:07:09;26.50;1.00
2202;DHT22;1107;48.654;9.250;2023-06-14T14:09:36;26.00;1.00
2202;DHT22;1107;48.654;9.250;2023-06-14T14:12:05;25.80;1.00
2202;DHT22;1107;48.654;9.250;2023-06-14T14:14:32;25.90;1.00
2202;DHT22;1107;48.654;9.250;2023-06-14T14:16:59;26.10;1.00
2202;DHT22;1107;48.654;9.250;2023-06-14T14:19:26;26.40;1.00
2202;DHT22;1107;48.654;9.250;2023-06-14T14:21:53;26.80;1.00
2202;DHT22;1107;48.654;9.250;2023-06-14T14:24:22;26.70;1.00
2202;DHT22;1107;48.654;9.250;2023-06-14T14:26:49;26.50;1.00
2202;DHT22;1107;48.654;9.250;2023-06-14T14:29:19;26.20;1.00
2202;DHT22;1107;48.654;9.250;2023-06-14T14:31:46;26.10;1.00
2202;DHT22;1107;48.654;9.250;2023-06-14T14:34:13;26.20;1.00
2202;DHT22;1107;48.654;9.250;2023-06-14T14:36:39;26.60;1.00
2202;DHT22;1107;48.654;9.250;2023-06-14T14:39:08;27.10;1.00
2202;DHT22;1107;48.654;9.250;2023-06-14T14:41:36;27.50;1.00
2202;DHT22;1107;48.654;9.250;2023-06-14T14:44:04;27.80;1.00
2202;DHT22;1107;48.654;9.250;2023-06-14T14:46:31;27.70;1.00
2202;DHT22;1107;48.654;9.250;2023-06-14T14:48:58;27.80;1.00
2202;DHT22;1107;48.654;9.250;2023-06-14T14:51:25;27.70;1.00
2202;DHT22;1107;48.654;9.250;2023-06-14T14:53:52;27.70;1.00
2202;DHT22;1107;48.654;9.250;2023-06-14T14:56:19;27.60;1.00
2202;DHT22;1107;48.654;9.250;2023-06-14T14:58:48;27.50;1.00
2202;DHT22;1107;48.654;9.250;2023-06-14T15:01:15;27.70;1.00
2202;DHT22;1107;48.654;9.250;2023-06-14T15:03:42;27.70;1.00
2202;DHT22;1107;48.654;9.250;2023-06-14T15:06:09;27.90;1.00
2202;DHT22;1107;48.654;9.250;2023-06-14T15:08:36;28.00;1.00
2202;DHT22;1107;48.654;9.250;2023-06-14T15:11:03;28.00;1.00
2202;DHT22;1107;48.654;9.250;2023-06-14T15:13:30;28.00;1.00
2202;DHT22;1107;48.654;9.250;2023-06-14T15:15:58;27.90;1.00
2202;DHT22;1107;48.654;9.250;2023-06-14T15:18:25;27.80;1.00
2202;DHT22;1107;48.654;9.250;2023-06-14T15:20:52;27.80;1.00
2202;DHT22;1107;48.654;9.250;2023-06-14T15:23:19;27.70;1.00
2202;DHT22;1107;48.654;9.250;2023-06-14T15:25:46;27.60;1.00
2202;DHT22;1107;48.654;9.250;2023-06-14T15:28:13;27.50;1.00
2202;DHT22;1107;48.654;9.250;2023-06-14T15:30:40;27.00;1.00
2202;DHT22;1107;48.654;9.250;2023-06-14T15:33:09;26.90;1.00
2202;DHT22;1107;48.654;9.250;2023-06-14T15:35:36;26.90;1.00
2202;DHT22;1107;48.654;9.250;2023-06-14T15:38:02;26.90;1.00
2202;DHT22;1107;48.654;9.250;2023-06-14T15:40:29;26.80;1.00
2202;DHT22;1107;48.654;9.250;2023-06-14T15:42:56;26.80;1.00
2202;DHT22;1107;48.654;9.250;2023-06-14T15:45:23;26.80;1.00
2202;DHT22;1107;48.654;9.250;2023-06-14T15:47:50;26.50;1.00
2202;DHT22;1107;48.654;9.250;2023-06-14T15:50:19;26.50;1.00
2202;DHT22;1107;48.654;9.250;2023-06-14T15:52:46;26.50;1.00
2202;DHT22;1107;48.654;9.250;2023-06-14T15:55:13;26.50;1.00
2202;DHT22;1107;48.654;9.250;2023-06-14T15:57:40;26.30;1.00
2202;DHT22;1107;48.654;9.250;2023-06-14T16:00:08;26.10;1.00
2202;DHT22;1107;48.654;9.250;2023-06-14T16:02:35;26.20;1.00
2202;DHT22;1107;48.654;9.250;2023-06-14T16:05:02;26.20;1.00
2202;DHT22;1107;48.654;9.250;2023-06-14T16:07:31;26.20;1.00
2202;DHT22;1107;48.654;9.250;2023-06-14T16:09:58;26.20;1.00
2202;DHT22;1107;48.654;9.250;2023-06-14T16:12:25;26.20;1.00
2202;DHT22;1107;48.654;9.250;2023-06-14T16:14:52;26.00;1.00
2202;DHT22;1107;48.654;9.250;2023-06-14T16:17:19;26.00;1.00
2202;DHT22;1107;48.654;9.250;2023-06-14T16:19:46;25.90;1.00
2202;DHT22;1107;48.654;9.250;2023-06-14T16:22:13;26.00;1.00
2202;DHT22;1107;48.654;9.250;2023-06-14T16:24:42;26.00;1.00